Time;durP1;ratioP1;P1;durP2;ratioP2;P2;SDS_P1;SDS_P2;PMS_P1;PMS_P2;Temp;Humidity;BMP_temperature;BMP_pressure;BME280_temperature;BME280_humidity;BME280_pressure;Samples;Min_cycle;Max_cycle;Signal;HPM_P1;HPM_P2
2022/08/29 00:01:48;;;;;;;25.92;11.02;;;;;;;;;;4939927;28;20044;-59
2022/08/29 00:04:14;;;;;;;38.13;14.73;;;;;;;;;;4947216;28;20107;-59
2022/08/29 00:06:41;;;;;;;38.03;13.75;;;;;;;;;;4939794;29;20055;-59
2022/08/29 00:09:08;;;;;;;52.70;17.15;;;;;;;;;;4939438;28;20130;-59
2022/08/29 00:11:34;;;;;;;53.53;17.42;;;;;;;;;;4937715;28;20400;-59
2022/08/29 00:14:05;;;;;;;33.97;14.20;;;;;;;;;;4937340;29;20055;-59
2022/08/29 00:16:46;;;;;;;54.63;17.45;;;;;;;;;;4954759;28;20066;-60
2022/08/29 00:19:14;;;;;;;35.92;16.48;;;;;;;;;;4943320;29;20087;-59
2022/08/29 00:21:40;;;;;;;44.53;17.83;;;;;;;;;;4939528;29;20043;-59
2022/08/29 00:24:08;;;;;;;51.15;18.55;;;;;;;;;;4945467;28;20039;-59
2022/08/29 00:26:35;;;;;;;59.78;19.98;;;;;;;;;;4937394;28;20043;-59
2022/08/29 00:29:01;;;;;;;48.90;20.08;;;;;;;;;;4937681;29;20530;-60
2022/08/29 00:31:28;;;;;;;33.30;15.52;;;;;;;;;;4938888;28;20127;-60
2022/08/29 00:33:56;;;;;;;51.58;18.63;;;;;;;;;;4943300;29;20496;-59
2022/08/29 00:36:23;;;;;;;39.35;16.90;;;;;;;;;;4945083;28;20040;-59
2022/08/29 00:38:51;;;;;;;61.88;21.48;;;;;;;;;;4938536;29;20468;-59
2022/08/29 00:41:17;;;;;;;38.08;16.15;;;;;;;;;;4936190;29;20079;-59
2022/08/29 00:43:44;;;;;;;42.15;18.92;;;;;;;;;;4953674;29;20526;-59
2022/08/29 00:46:16;;;;;;;52.22;20.42;;;;;;;;;;4946088;29;20127;-59
2022/08/29 00:48:48;;;;;;;58.15;20.85;;;;;;;;;;4947009;29;20048;-59
2022/08/29 00:51:19;;;;;;;58.83;19.98;;;;;;;;;;4939031;29;20062;-59
2022/08/29 00:53:48;;;;;;;60.17;19.45;;;;;;;;;;4938121;28;20074;-59
2022/08/29 00:56:16;;;;;;;37.75;17.95;;;;;;;;;;4940062;29;20073;-59
2022/08/29 00:59:11;;;;;;;51.80;19.55;;;;;;;;;;4948818;28;20035;-59
2022/08/29 01:01:38;;;;;;;50.72;18.70;;;;;;;;;;4927825;29;20485;-59
2022/08/29 01:04:05;;;;;;;44.60;19.00;;;;;;;;;;4938799;28;20039;-59
2022/08/29 01:06:36;;;;;;;45.10;17.17;;;;;;;;;;4938546;29;20471;-59
2022/08/29 01:09:04;;;;;;;34.35;16.92;;;;;;;;;;4938710;29;20129;-59
2022/08/29 01:14:17;;;;;;;43.47;16.35;;;;;;;;;;4939272;29;20115;-60
2022/08/29 01:16:45;;;;;;;110.78;26.65;;;;;;;;;;4952663;28;20391;-59
2022/08/29 01:19:27;;;;;;;99.13;32.20;;;;;;;;;;4946956;28;20508;-61
2022/08/29 01:22:17;;;;;;;16.60;1.60;;;;;;;;;;4921150;29;20099;-61
2022/08/29 01:24:49;;;;;;;17.98;1.70;;;;;;;;;;4906612;29;20105;-63
2022/08/29 01:27:17;;;;;;;17.05;1.63;;;;;;;;;;4909351;29;20143;-63
2022/08/29 01:29:44;;;;;;;13.77;1.38;;;;;;;;;;4912499;29;20056;-64
2022/08/29 01:32:11;;;;;;;4.78;0.52;;;;;;;;;;4898740;29;20052;-61
2022/08/29 01:34:38;;;;;;;18.05;1.80;;;;;;;;;;4895254;29;20055;-62
2022/08/29 01:37:07;;;;;;;5.47;0.68;;;;;;;;;;4908665;29;20529;-62
2022/08/29 01:39:35;;;;;;;7.47;0.80;;;;;;;;;;4908534;29;20050;-62
2022/08/29 01:42:03;;;;;;;22.35;2.25;;;;;;;;;;4911995;29;20146;-63
2022/08/29 01:44:30;;;;;;;125.55;44.72;;;;;;;;;;4897766;29;20517;-62
2022/08/29 01:46:59;;;;;;;125.60;41.88;;;;;;;;;;4908913;29;20070;-62
2022/08/29 01:49:30;;;;;;;131.60;41.15;;;;;;;;;;4900093;29;20571;-63
2022/08/29 01:51:56;;;;;;;113.22;38.83;;;;;;;;;;4901818;29;20131;-63
2022/08/29 01:54:23;;;;;;;108.03;36.38;;;;;;;;;;4909640;29;20050;-63
2022/08/29 01:56:50;;;;;;;137.88;37.70;;;;;;;;;;4911947;29;20072;-62
2022/08/29 01:59:18;;;;;;;109.45;34.60;;;;;;;;;;4898461;29;20048;-61
2022/08/29 02:01:47;;;;;;;108.07;34.15;;;;;;;;;;4917462;29;20081;-61
2022/08/29 02:04:14;;;;;;;132.50;35.50;;;;;;;;;;4937538;29;20385;-62
2022/08/29 02:06:41;;;;;;;123.80;34.78;;;;;;;;;;4936994;28;20071;-61
2022/08/29 02:09:08;;;;;;;103.70;32.55;;;;;;;;;;4937652;29;20487;-62
2022/08/29 02:11:38;;;;;;;140.02;35.33;;;;;;;;;;4935753;28;20051;-62
2022/08/29 02:14:05;;;;;;;116.50;33.90;;;;;;;;;;4935443;29;20047;-62
2022/08/29 02:16:31;;;;;;;117.13;35.55;;;;;;;;;;4937193;28;20055;-62
2022/08/29 02:18:58;;;;;;;125.95;35.22;;;;;;;;;;4938536;29;20039;-62
2022/08/29 02:21:26;;;;;;;122.88;35.72;;;;;;;;;;4947668;29;20099;-63
2022/08/29 02:23:54;;;;;;;120.93;33.40;;;;;;;;;;4937682;29;20043;-62
2022/08/29 02:26:21;;;;;;;169.20;53.05;;;;;;;;;;4933656;29;20497;-62
2022/08/29 02:28:50;;;;;;;137.80;43.58;;;;;;;;;;4937062;29;20051;-62
2022/08/29 02:31:18;;;;;;;107.35;32.70;;;;;;;;;;4937344;28;20134;-62
2022/08/29 02:33:45;;;;;;;130.68;34.13;;;;;;;;;;4941143;29;20102;-62
2022/08/29 02:36:12;;;;;;;113.20;32.25;;;;;;;;;;4942499;29;20060;-61
2022/08/29 02:38:39;;;;;;;120.30;31.98;;;;;;;;;;4935401;28;20385;-61
2022/08/29 02:41:06;;;;;;;118.88;31.95;;;;;;;;;;4935041;29;20596;-61
2022/08/29 02:43:37;;;;;;;115.05;31.70;;;;;;;;;;4937218;29;20071;-61
2022/08/29 02:46:04;;;;;;;119.80;33.75;;;;;;;;;;4937085;28;20028;-61
2022/08/29 02:48:31;;;;;;;122.70;34.28;;;;;;;;;;4937365;28;20040;-61
2022/08/29 02:50:58;;;;;;;125.47;34.42;;;;;;;;;;4937860;28;20134;-62
2022/08/29 02:53:26;;;;;;;160.43;37.75;;;;;;;;;;4933697;28;20047;-61
2022/08/29 02:55:53;;;;;;;156.30;38.50;;;;;;;;;;4936184;29;20154;-61
2022/08/29 02:58:20;;;;;;;165.20;39.95;;;;;;;;;;4937314;29;20039;-61
2022/08/29 03:00:47;;;;;;;189.82;42.78;;;;;;;;;;4936947;29;20036;-61
2022/08/29 03:03:14;;;;;;;202.32;44.17;;;;;;;;;;4936823;29;20047;-61
2022/08/29 03:05:41;;;;;;;205.02;43.78;;;;;;;;;;4935750;28;20489;-62
2022/08/29 03:08:09;;;;;;;195.65;43.17;;;;;;;;;;4934948;29;20123;-62
2022/08/29 03:10:36;;;;;;;237.32;45.95;;;;;;;;;;4936781;28;20044;-62
2022/08/29 03:13:03;;;;;;;205.85;45.22;;;;;;;;;;4936800;29;20040;-62
2022/08/29 03:15:30;;;;;;;225.32;46.63;;;;;;;;;;4936644;29;20048;-62
2022/08/29 03:17:57;;;;;;;218.23;48.13;;;;;;;;;;4936807;28;20066;-62
2022/08/29 03:20:24;;;;;;;245.15;49.67;;;;;;;;;;4945877;29;20102;-62
2022/08/29 03:22:52;;;;;;;201.60;45.70;;;;;;;;;;4936870;29;20441;-62
2022/08/29 03:25:20;;;;;;;211.60;45.55;;;;;;;;;;4936535;28;20476;-62
2022/08/29 03:27:46;;;;;;;229.07;49.67;;;;;;;;;;4936402;29;20070;-62
2022/08/29 03:30:14;;;;;;;201.93;46.60;;;;;;;;;;4937131;29;20126;-62
2022/08/29 03:32:41;;;;;;;238.10;47.67;;;;;;;;;;4939622;28;20130;-62
2022/08/29 03:35:09;;;;;;;216.65;47.13;;;;;;;;;;4939230;29;20583;-62
2022/08/29 03:37:37;;;;;;;205.88;46.28;;;;;;;;;;4937159;28;20518;-62
2022/08/29 03:40:05;;;;;;;217.23;46.97;;;;;;;;;;4936561;28;20040;-60
2022/08/29 03:42:31;;;;;;;187.27;46.95;;;;;;;;;;4936541;28;20036;-60
2022/08/29 03:45:01;;;;;;;215.07;49.63;;;;;;;;;;4936804;29;20039;-60
2022/08/29 03:47:27;;;;;;;213.65;48.47;;;;;;;;;;4943433;28;20034;-59
2022/08/29 03:49:54;;;;;;;224.93;50.78;;;;;;;;;;4939638;29;20044;-59
2022/08/29 03:52:20;;;;;;;243.88;50.10;;;;;;;;;;4940344;28;20495;-59
2022/08/29 03:54:47;;;;;;;192.77;48.65;;;;;;;;;;4939880;28;20492;-61
2022/08/29 03:57:13;;;;;;;283.90;95.07;;;;;;;;;;4939959;28;20047;-60
2022/08/29 03:59:41;;;;;;;263.98;57.80;;;;;;;;;;4938187;29;20086;-59
2022/08/29 04:02:08;;;;;;;247.40;53.17;;;;;;;;;;4936959;29;20515;-60
2022/08/29 04:07:20;;;;;;;250.10;53.38;;;;;;;;;;4922530;29;20158;-60
2022/08/29 04:09:47;;;;;;;216.63;48.85;;;;;;;;;;4940267;29;20504;-60
2022/08/29 04:12:14;;;;;;;212.98;50.92;;;;;;;;;;4939568;29;20122;-60
2022/08/29 04:14:41;;;;;;;249.25;52.22;;;;;;;;;;4937936;28;20677;-60
2022/08/29 04:17:09;;;;;;;236.93;52.20;;;;;;;;;;4941259;29;20090;-59
2022/08/29 04:19:36;;;;;;;252.77;51.53;;;;;;;;;;4941495;29;20424;-59
2022/08/29 04:22:03;;;;;;;268.15;56.55;;;;;;;;;;4939026;29;20059;-59
2022/08/29 04:24:33;;;;;;;232.63;50.80;;;;;;;;;;4939350;28;20083;-59
2022/08/29 04:27:00;;;;;;;257.20;54.25;;;;;;;;;;4939187;29;20053;-61
2022/08/29 04:29:26;;;;;;;267.40;54.35;;;;;;;;;;4935855;29;20043;-59
2022/08/29 04:31:53;;;;;;;239.82;52.80;;;;;;;;;;4940173;29;20171;-60
2022/08/29 04:34:20;;;;;;;231.90;51.90;;;;;;;;;;4942645;29;20048;-61
2022/08/29 04:36:47;;;;;;;254.18;57.15;;;;;;;;;;4945448;28;20700;-59
2022/08/29 04:39:13;;;;;;;274.98;61.10;;;;;;;;;;4920687;29;20058;-60
2022/08/29 04:41:40;;;;;;;248.65;56.72;;;;;;;;;;4954172;28;20085;-61
2022/08/29 04:44:08;;;;;;;264.42;59.47;;;;;;;;;;4953969;28;20051;-60
2022/08/29 04:46:35;;;;;;;256.85;57.70;;;;;;;;;;4941969;28;20493;-65
2022/08/29 04:49:01;;;;;;;248.52;60.53;;;;;;;;;;4938770;29;20079;-60
2022/08/29 04:51:30;;;;;;;252.82;59.55;;;;;;;;;;4938267;28;20047;-61
2022/08/29 04:53:57;;;;;;;245.18;58.08;;;;;;;;;;4938969;29;20444;-60
2022/08/29 04:56:24;;;;;;;254.88;60.75;;;;;;;;;;4949255;28;20052;-61
2022/08/29 04:58:50;;;;;;;248.80;58.58;;;;;;;;;;4937701;29;20118;-61
2022/08/29 05:01:19;;;;;;;236.90;58.30;;;;;;;;;;4938313;28;20062;-61
2022/08/29 05:03:47;;;;;;;268.17;60.45;;;;;;;;;;4938371;28;20044;-61
2022/08/29 05:06:14;;;;;;;266.42;61.15;;;;;;;;;;4938042;28;20400;-61
2022/08/29 05:08:44;;;;;;;207.65;55.72;;;;;;;;;;4937163;29;20051;-60
2022/08/29 05:11:13;;;;;;;218.55;57.33;;;;;;;;;;4936376;29;20052;-60
2022/08/29 05:13:47;;;;;;;231.98;58.03;;;;;;;;;;4938016;28;20118;-60
2022/08/29 05:16:15;;;;;;;207.38;55.60;;;;;;;;;;4936816;28;20524;-61
2022/08/29 05:18:43;;;;;;;242.38;59.78;;;;;;;;;;4942426;28;20050;-60
2022/08/29 05:21:10;;;;;;;211.63;56.38;;;;;;;;;;4937358;29;20134;-60
2022/08/29 05:23:37;;;;;;;230.35;59.88;;;;;;;;;;4934942;29;20123;-62
2022/08/29 05:26:04;;;;;;;210.85;56.78;;;;;;;;;;4935521;29;20480;-61
2022/08/29 05:28:32;;;;;;;232.55;58.47;;;;;;;;;;4936390;29;20047;-61
2022/08/29 05:30:58;;;;;;;233.77;62.22;;;;;;;;;;4938037;28;20127;-61
2022/08/29 05:33:26;;;;;;;220.70;59.05;;;;;;;;;;4943521;28;20488;-62
2022/08/29 05:35:52;;;;;;;229.65;59.38;;;;;;;;;;4944407;29;20062;-63
2022/08/29 05:38:19;;;;;;;190.60;55.70;;;;;;;;;;4939219;29;20048;-64
2022/08/29 05:40:45;;;;;;;202.05;57.03;;;;;;;;;;4940198;28;20074;-63
2022/08/29 05:43:12;;;;;;;169.65;54.10;;;;;;;;;;4937581;29;20123;-62
2022/08/29 05:45:40;;;;;;;184.43;59.00;;;;;;;;;;4938138;28;20123;-63
2022/08/29 05:48:08;;;;;;;163.57;53.10;;;;;;;;;;4938158;28;20046;-63
2022/08/29 05:50:41;;;;;;;182.02;53.50;;;;;;;;;;4935535;29;20523;-63
2022/08/29 05:53:08;;;;;;;169.70;50.38;;;;;;;;;;4935909;29;20068;-62
2022/08/29 05:55:41;;;;;;;134.18;44.65;;;;;;;;;;4937839;29;20428;-63
2022/08/29 05:58:08;;;;;;;;;;;;;;;;;;4937421;29;20035;-63
2022/08/29 06:00:39;;;;;;;133.07;43.28;;;;;;;;;;4937739;29;19923;-64
2022/08/29 06:03:06;;;;;;;144.18;44.33;;;;;;;;;;4937944;29;20381;-63
2022/08/29 06:05:33;;;;;;;128.85;43.55;;;;;;;;;;4934991;28;20044;-63
2022/08/29 06:08:00;;;;;;;134.13;45.30;;;;;;;;;;4936477;29;20473;-63
2022/08/29 06:10:26;;;;;;;118.38;40.97;;;;;;;;;;4937393;29;20127;-63
2022/08/29 06:12:53;;;;;;;82.45;32.50;;;;;;;;;;4937186;29;20043;-63
2022/08/29 06:15:19;;;;;;;90.38;32.90;;;;;;;;;;4949106;29;20082;-63
2022/08/29 06:17:46;;;;;;;82.38;28.83;;;;;;;;;;4936322;29;20051;-63
2022/08/29 06:20:13;;;;;;;66.18;27.23;;;;;;;;;;4949135;29;20131;-63
2022/08/29 06:22:39;;;;;;;80.65;27.38;;;;;;;;;;4935427;29;20047;-63
2022/08/29 06:25:07;;;;;;;71.18;27.13;;;;;;;;;;4937730;28;20580;-63
2022/08/29 06:27:53;;;;;;;63.30;25.60;;;;;;;;;;4936592;28;20445;-63
2022/08/29 06:30:20;;;;;;;69.30;25.95;;;;;;;;;;4937413;28;20507;-63
2022/08/29 06:32:46;;;;;;;51.08;21.90;;;;;;;;;;4924695;28;20036;-64
2022/08/29 06:35:13;;;;;;;67.28;25.20;;;;;;;;;;4940783;29;20126;-63
2022/08/29 06:37:40;;;;;;;57.45;24.92;;;;;;;;;;4939493;28;20058;-63
2022/08/29 06:40:07;;;;;;;47.08;23.17;;;;;;;;;;4937275;28;20036;-64
2022/08/29 06:42:33;;;;;;;50.47;24.10;;;;;;;;;;4936980;29;20094;-63
2022/08/29 06:45:02;;;;;;;52.85;21.17;;;;;;;;;;4937151;28;20476;-63
2022/08/29 06:47:29;;;;;;;36.42;18.55;;;;;;;;;;4934244;29;20047;-64
2022/08/29 06:49:56;;;;;;;33.95;17.10;;;;;;;;;;4936677;29;20058;-65
2022/08/29 06:52:22;;;;;;;46.00;16.83;;;;;;;;;;4937224;29;20127;-64
2022/08/29 06:54:49;;;;;;;31.80;15.70;;;;;;;;;;4937514;29;20063;-64
2022/08/29 06:57:18;;;;;;;50.50;18.75;;;;;;;;;;4936133;29;20040;-64
2022/08/29 06:59:44;;;;;;;52.90;18.30;;;;;;;;;;4935997;28;20492;-63
2022/08/29 07:02:11;;;;;;;22.98;15.50;;;;;;;;;;4935104;29;20432;-64
2022/08/29 07:04:37;;;;;;;39.05;17.73;;;;;;;;;;4943783;29;20039;-64
2022/08/29 07:07:04;;;;;;;58.03;20.90;;;;;;;;;;4936865;28;20500;-63
2022/08/29 07:09:31;;;;;;;36.53;18.83;;;;;;;;;;4937479;28;20071;-63
2022/08/29 07:11:57;;;;;;;53.92;21.42;;;;;;;;;;4936506;28;20035;-63
2022/08/29 07:14:24;;;;;;;48.28;21.38;;;;;;;;;;4945549;29;20492;-63
2022/08/29 07:16:50;;;;;;;47.03;22.45;;;;;;;;;;4936731;29;20071;-63
2022/08/29 07:19:17;;;;;;;42.42;21.65;;;;;;;;;;4937267;28;20048;-63
2022/08/29 07:21:43;;;;;;;74.85;25.35;;;;;;;;;;4936773;28;20067;-63
2022/08/29 07:24:10;;;;;;;51.97;20.05;;;;;;;;;;4941035;28;20070;-64
2022/08/29 07:26:40;;;;;;;53.42;21.73;;;;;;;;;;4938115;28;20165;-64
2022/08/29 07:29:09;;;;;;;53.55;21.35;;;;;;;;;;4938815;29;20103;-64
2022/08/29 07:31:37;;;;;;;52.47;24.95;;;;;;;;;;4940499;28;20576;-64
2022/08/29 07:34:04;;;;;;;61.95;26.20;;;;;;;;;;4950975;28;20050;-64
2022/08/29 07:36:32;;;;;;;73.32;28.58;;;;;;;;;;4946837;28;20044;-63
2022/08/29 07:39:00;;;;;;;70.63;30.05;;;;;;;;;;4940256;29;20106;-64
2022/08/29 07:41:27;;;;;;;72.88;32.03;;;;;;;;;;4936627;28;20044;-64
2022/08/29 07:43:54;;;;;;;88.53;32.53;;;;;;;;;;4939562;29;20115;-63
2022/08/29 07:46:20;;;;;;;76.90;31.48;;;;;;;;;;4940274;29;20039;-64
2022/08/29 07:48:47;;;;;;;65.38;30.38;;;;;;;;;;4940080;28;20536;-64
2022/08/29 07:51:18;;;;;;;77.78;32.35;;;;;;;;;;4940131;28;20043;-64
2022/08/29 07:53:45;;;;;;;62.53;29.30;;;;;;;;;;4938377;29;20044;-63
2022/08/29 07:56:13;;;;;;;59.97;28.33;;;;;;;;;;4938027;29;20050;-64
2022/08/29 07:58:40;;;;;;;77.22;32.40;;;;;;;;;;4939656;28;20046;-63
2022/08/29 08:01:08;;;;;;;63.42;30.42;;;;;;;;;;4940119;28;20103;-64
2022/08/29 08:03:41;;;;;;;60.80;29.65;;;;;;;;;;4939863;28;20036;-64
2022/08/29 08:06:08;;;;;;;63.63;28.00;;;;;;;;;;4940026;28;20047;-63
2022/08/29 08:08:37;;;;;;;71.28;31.15;;;;;;;;;;4937490;28;20047;-62
2022/08/29 08:11:05;;;;;;;69.97;32.28;;;;;;;;;;4941526;29;20115;-63
2022/08/29 08:13:32;;;;;;;64.35;30.33;;;;;;;;;;4941991;29;20054;-64
2022/08/29 08:16:01;;;;;;;74.47;34.45;;;;;;;;;;4940081;28;20471;-63
2022/08/29 08:18:28;;;;;;;95.13;36.78;;;;;;;;;;4939510;29;20055;-64
2022/08/29 08:20:55;;;;;;;91.70;38.00;;;;;;;;;;4954897;28;20078;-64
2022/08/29 08:23:21;;;;;;;105.55;42.45;;;;;;;;;;4935926;29;20126;-63
2022/08/29 08:25:48;;;;;;;91.90;39.15;;;;;;;;;;4939175;28;20657;-63
2022/08/29 08:28:15;;;;;;;100.30;37.92;;;;;;;;;;4942009;28;20115;-63
2022/08/29 08:30:42;;;;;;;68.43;34.03;;;;;;;;;;4957979;28;20036;-64
2022/08/29 08:33:09;;;;;;;61.97;30.00;;;;;;;;;;4944617;28;20039;-64
2022/08/29 08:35:37;;;;;;;59.55;27.63;;;;;;;;;;4943550;28;20074;-64
2022/08/29 08:38:08;;;;;;;33.17;21.50;;;;;;;;;;4937538;29;20052;-64
2022/08/29 08:40:37;;;;;;;44.45;20.15;;;;;;;;;;4939271;28;20047;-64
2022/08/29 08:43:06;;;;;;;34.88;20.40;;;;;;;;;;4939427;29;20094;-65
2022/08/29 08:45:36;;;;;;;32.25;20.23;;;;;;;;;;4939304;29;20404;-63
2022/08/29 08:48:08;;;;;;;45.28;20.02;;;;;;;;;;4939369;29;20098;-64
2022/08/29 08:50:49;;;;;;;37.70;16.50;;;;;;;;;;4936257;29;20058;-64
2022/08/29 08:53:34;;;;;;;36.97;14.82;;;;;;;;;;4935641;29;20043;-64
2022/08/29 08:56:04;;;;;;;31.25;16.42;;;;;;;;;;4937864;29;20131;-63
2022/08/29 08:58:33;;;;;;;36.58;16.63;;;;;;;;;;4938698;29;20036;-64
2022/08/29 09:01:03;;;;;;;27.60;16.23;;;;;;;;;;4939022;29;20119;-63
2022/08/29 09:03:54;;;;;;;32.33;16.13;;;;;;;;;;4939130;28;20071;-64
2022/08/29 09:06:39;;;;;;;25.20;14.82;;;;;;;;;;4938792;29;20523;-64
2022/08/29 09:09:11;;;;;;;46.58;16.58;;;;;;;;;;4938469;29;20043;-64
2022/08/29 09:11:40;;;;;;;49.40;15.10;;;;;;;;;;4942444;29;20039;-63
2022/08/29 09:14:10;;;;;;;22.92;12.38;;;;;;;;;;4937192;29;20075;-64
2022/08/29 09:16:41;;;;;;;34.60;13.32;;;;;;;;;;4938695;28;20590;-63
2022/08/29 09:19:09;;;;;;;24.48;12.65;;;;;;;;;;4938968;29;20480;-63
2022/08/29 09:21:41;;;;;;;34.55;13.45;;;;;;;;;;4938135;29;20063;-63
2022/08/29 09:24:11;;;;;;;33.80;12.25;;;;;;;;;;4938474;29;20420;-63
2022/08/29 09:26:37;;;;;;;36.25;13.20;;;;;;;;;;4939051;28;20050;-63
2022/08/29 09:29:08;;;;;;;49.63;12.93;;;;;;;;;;4920158;29;20111;-63
2022/08/29 09:31:35;;;;;;;32.88;9.98;;;;;;;;;;4938691;29;20048;-64
2022/08/29 09:34:03;;;;;;;21.38;9.98;;;;;;;;;;4944204;29;20090;-63
2022/08/29 09:36:39;;;;;;;25.83;9.00;;;;;;;;;;4944532;29;20461;-64
2022/08/29 09:39:28;;;;;;;27.45;8.77;;;;;;;;;;4952081;29;20118;-64
2022/08/29 09:41:56;;;;;;;40.53;9.68;;;;;;;;;;4952974;28;20122;-64
2022/08/29 09:44:30;;;;;;;29.42;7.70;;;;;;;;;;4935036;29;20114;-64
2022/08/29 09:47:19;;;;;;;31.08;8.48;;;;;;;;;;4937563;29;20172;-64
2022/08/29 09:50:07;;;;;;;33.22;9.20;;;;;;;;;;4937854;28;20464;-63
2022/08/29 09:52:35;;;;;;;30.25;8.30;;;;;;;;;;4938255;29;20047;-64
2022/08/29 09:55:16;;;;;;;25.88;8.13;;;;;;;;;;4937985;28;20074;-63
2022/08/29 09:57:47;;;;;;;23.73;7.68;;;;;;;;;;4937515;28;20071;-64
2022/08/29 10:00:16;;;;;;;41.08;8.85;;;;;;;;;;4938027;29;20094;-64
2022/08/29 10:02:44;;;;;;;52.58;9.45;;;;;;;;;;4935637;28;20918;-64
2022/08/29 10:05:30;;;;;;;17.63;6.05;;;;;;;;;;4935783;29;20104;-64
2022/08/29 10:07:57;;;;;;;29.92;7.40;;;;;;;;;;4945464;29;20135;-64
2022/08/29 10:10:25;;;;;;;16.67;5.55;;;;;;;;;;4941541;29;20071;-64
2022/08/29 10:12:59;;;;;;;19.35;5.65;;;;;;;;;;4937487;28;20071;-64
2022/08/29 10:15:28;;;;;;;26.08;6.78;;;;;;;;;;4937705;29;20031;-63
2022/08/29 10:18:26;;;;;;;48.33;9.38;;;;;;;;;;4937080;29;20134;-63
2022/08/29 10:21:11;;;;;;;23.38;6.03;;;;;;;;;;4936796;28;20479;-64
2022/08/29 10:23:38;;;;;;;46.65;8.43;;;;;;;;;;4937204;28;20053;-63
2022/08/29 10:26:11;;;;;;;45.47;8.25;;;;;;;;;;4936263;29;20067;-64
2022/08/29 10:28:47;;;;;;;33.92;6.82;;;;;;;;;;4937279;28;20114;-64
2022/08/29 10:31:26;;;;;;;23.67;5.90;;;;;;;;;;4937589;29;20043;-64
2022/08/29 10:33:57;;;;;;;24.42;4.95;;;;;;;;;;4942490;28;20527;-64
2022/08/29 10:36:28;;;;;;;39.65;6.70;;;;;;;;;;4944157;29;20054;-64
2022/08/29 10:38:57;;;;;;;22.90;5.10;;;;;;;;;;4937005;28;20081;-63
2022/08/29 10:41:27;;;;;;;16.55;4.45;;;;;;;;;;4938137;29;20071;-64
2022/08/29 10:43:56;;;;;;;34.13;6.22;;;;;;;;;;4936934;29;20209;-64
2022/08/29 10:46:32;;;;;;;11.38;4.03;;;;;;;;;;4937892;28;20092;-64
2022/08/29 10:49:09;;;;;;;15.43;4.40;;;;;;;;;;4936967;29;20127;-63
2022/08/29 10:51:41;;;;;;;17.13;4.40;;;;;;;;;;4937760;29;20543;-63
2022/08/29 10:54:15;;;;;;;26.23;5.23;;;;;;;;;;4949479;28;20059;-63
2022/08/29 10:56:44;;;;;;;27.05;5.20;;;;;;;;;;4935527;28;20044;-64
2022/08/29 10:59:29;;;;;;;18.50;4.60;;;;;;;;;;4939147;29;20048;-64
2022/08/29 11:01:59;;;;;;;18.52;4.57;;;;;;;;;;4940956;29;20078;-63
2022/08/29 11:04:28;;;;;;;22.48;5.10;;;;;;;;;;4941173;29;20083;-63
2022/08/29 11:06:58;;;;;;;31.02;5.63;;;;;;;;;;4941224;29;20471;-64
2022/08/29 11:09:27;;;;;;;16.00;4.55;;;;;;;;;;4952811;29;20115;-64
2022/08/29 11:12:14;;;;;;;33.45;6.47;;;;;;;;;;4922940;29;20126;-63
2022/08/29 11:14:58;;;;;;;39.90;7.68;;;;;;;;;;4937545;28;20071;-63
2022/08/29 11:17:28;;;;;;;30.50;6.82;;;;;;;;;;4933356;28;20582;-63
2022/08/29 11:20:09;;;;;;;29.27;6.05;;;;;;;;;;4939556;29;20103;-64
2022/08/29 11:22:40;;;;;;;30.20;6.93;;;;;;;;;;4939233;28;20083;-63
2022/08/29 11:25:09;;;;;;;23.38;5.75;;;;;;;;;;4939433;28;20039;-64
2022/08/29 11:27:41;;;;;;;24.17;5.90;;;;;;;;;;4939145;29;20065;-63
2022/08/29 11:30:09;;;;;;;45.60;7.95;;;;;;;;;;4939387;29;20130;-63
2022/08/29 11:32:37;;;;;;;27.52;5.70;;;;;;;;;;4942084;29;20412;-64
2022/08/29 11:35:10;;;;;;;20.65;5.60;;;;;;;;;;4942246;29;20043;-64
2022/08/29 11:37:59;;;;;;;11.65;4.15;;;;;;;;;;4941679;28;20078;-64
2022/08/29 11:40:28;;;;;;;23.45;5.07;;;;;;;;;;4905728;29;20079;-62
2022/08/29 11:43:18;;;;;;;15.65;4.35;;;;;;;;;;4909414;29;20079;-64
2022/08/29 11:45:53;;;;;;;22.67;5.35;;;;;;;;;;4909594;29;20057;-64
2022/08/29 11:48:37;;;;;;;21.55;5.32;;;;;;;;;;4911325;29;20134;-63
2022/08/29 11:51:22;;;;;;;37.88;7.15;;;;;;;;;;4901296;29;20053;-64
2022/08/29 11:53:48;;;;;;;22.77;5.20;;;;;;;;;;4911115;29;20062;-64
2022/08/29 11:56:15;;;;;;;24.15;4.90;;;;;;;;;;4912421;29;20135;-60
2022/08/29 11:58:43;;;;;;;18.85;4.43;;;;;;;;;;4909106;29;20048;-58
2022/08/29 12:01:32;;;;;;;16.88;3.55;;;;;;;;;;4908914;29;20131;-59
2022/08/29 12:03:59;;;;;;;14.60;3.78;;;;;;;;;;4893919;29;20052;-59
2022/08/29 12:06:28;;;;;;;11.70;3.95;;;;;;;;;;4909165;29;20143;-59
2022/08/29 12:09:00;;;;;;;31.63;5.85;;;;;;;;;;4909438;29;20124;-59
2022/08/29 12:11:49;;;;;;;22.90;4.63;;;;;;;;;;4910219;29;20067;-59
2022/08/29 12:14:35;;;;;;;42.83;6.70;;;;;;;;;;4912176;29;20048;-58
2022/08/29 12:17:09;;;;;;;26.85;5.55;;;;;;;;;;4886006;29;1089274;-59
2022/08/29 12:19:45;;;;;;;27.27;5.77;;;;;;;;;;4954287;28;20051;-58
2022/08/29 12:22:31;;;;;;;26.90;5.07;;;;;;;;;;4954346;28;20064;-59
2022/08/29 12:25:18;;;;;;;14.32;3.70;;;;;;;;;;4954322;28;20105;-59
2022/08/29 12:28:00;;;;;;;44.35;6.93;;;;;;;;;;4953540;29;20042;-59
2022/08/29 12:30:28;;;;;;;13.52;3.33;;;;;;;;;;4954403;29;20042;-59
2022/08/29 12:33:17;;;;;;;35.40;5.45;;;;;;;;;;4953891;28;20126;-59
2022/08/29 12:36:06;;;;;;;19.90;4.05;;;;;;;;;;4954591;28;20055;-58
2022/08/29 12:38:49;;;;;;;37.08;5.85;;;;;;;;;;4954179;28;20058;-59
2022/08/29 12:41:27;;;;;;;21.27;4.32;;;;;;;;;;4955244;29;20050;-58
2022/08/29 12:43:56;;;;;;;16.98;4.07;;;;;;;;;;4953746;29;20468;-59
2022/08/29 12:46:33;;;;;;;8.23;3.05;;;;;;;;;;4954288;28;20050;-59
2022/08/29 12:49:06;;;;;;;27.35;4.95;;;;;;;;;;4953497;28;20043;-59
2022/08/29 12:51:37;;;;;;;24.92;4.20;;;;;;;;;;4954292;29;20039;-59
2022/08/29 12:54:04;;;;;;;21.90;4.55;;;;;;;;;;4953988;29;20051;-59
2022/08/29 12:56:31;;;;;;;23.13;4.18;;;;;;;;;;4954362;28;20132;-59
2022/08/29 12:58:59;;;;;;;19.23;4.05;;;;;;;;;;4953720;29;20047;-59
2022/08/29 13:01:26;;;;;;;26.02;4.97;;;;;;;;;;4953470;28;20035;-59
2022/08/29 13:03:56;;;;;;;18.38;4.20;;;;;;;;;;4953605;29;20050;-58
2022/08/29 13:06:22;;;;;;;22.45;4.68;;;;;;;;;;4953449;28;20135;-58
2022/08/29 13:08:49;;;;;;;45.53;6.88;;;;;;;;;;4953628;29;20047;-59
2022/08/29 13:11:18;;;;;;;15.98;3.67;;;;;;;;;;4956293;28;20407;-59
2022/08/29 13:13:45;;;;;;;22.50;4.68;;;;;;;;;;4952847;28;20072;-58
2022/08/29 13:16:26;;;;;;;39.25;6.10;;;;;;;;;;4955636;28;20126;-58
2022/08/29 13:18:53;;;;;;;36.03;5.90;;;;;;;;;;4961165;28;20043;-59
2022/08/29 13:21:36;;;;;;;29.67;5.10;;;;;;;;;;4952665;28;20478;-59
2022/08/29 13:24:02;;;;;;;15.60;4.13;;;;;;;;;;4953372;29;20047;-59
2022/08/29 13:26:31;;;;;;;14.15;3.90;;;;;;;;;;4953971;29;20039;-59
2022/08/29 13:28:57;;;;;;;28.45;4.95;;;;;;;;;;4952925;29;20043;-59
2022/08/29 13:31:31;;;;;;;14.68;3.53;;;;;;;;;;4952890;29;20043;-59
2022/08/29 13:34:18;;;;;;;22.77;4.57;;;;;;;;;;4952866;29;20062;-58
2022/08/29 13:36:48;;;;;;;22.13;3.95;;;;;;;;;;4952742;28;20074;-59
2022/08/29 13:39:24;;;;;;;21.02;4.05;;;;;;;;;;4953003;28;20070;-59
2022/08/29 13:41:56;;;;;;;30.30;4.68;;;;;;;;;;4952228;28;20428;-59
2022/08/29 13:44:28;;;;;;;21.52;4.97;;;;;;;;;;4953664;29;20047;-59
2022/08/29 13:46:58;;;;;;;24.65;4.35;;;;;;;;;;4952610;29;20527;-59
2022/08/29 13:49:27;;;;;;;19.85;3.88;;;;;;;;;;4952806;29;20507;-59
2022/08/29 13:51:53;;;;;;;21.30;4.28;;;;;;;;;;4952592;28;20054;-59
2022/08/29 13:54:20;;;;;;;25.50;5.07;;;;;;;;;;4952913;28;20898;-59
2022/08/29 13:56:52;;;;;;;42.08;6.43;;;;;;;;;;4951870;29;20127;-59
2022/08/29 13:59:20;;;;;;;49.70;6.10;;;;;;;;;;4953084;29;20047;-59
2022/08/29 14:01:47;;;;;;;25.42;4.40;;;;;;;;;;4952056;28;20114;-59
2022/08/29 14:04:34;;;;;;;26.88;4.82;;;;;;;;;;4952375;28;20758;-60
2022/08/29 14:07:04;;;;;;;13.70;3.63;;;;;;;;;;4952881;28;20070;-60
2022/08/29 14:09:33;;;;;;;37.97;5.47;;;;;;;;;;4952172;29;20137;-60
2022/08/29 14:12:00;;;;;;;55.17;7.00;;;;;;;;;;4952141;28;20126;-60
2022/08/29 14:14:26;;;;;;;20.33;3.63;;;;;;;;;;4953147;29;20047;-59
2022/08/29 14:16:53;;;;;;;30.83;5.60;;;;;;;;;;4952026;28;20492;-60
2022/08/29 14:19:20;;;;;;;30.42;4.75;;;;;;;;;;4948221;28;20047;-60
2022/08/29 14:21:46;;;;;;;25.38;4.30;;;;;;;;;;4948071;29;20043;-59
2022/08/29 14:24:13;;;;;;;24.25;5.03;;;;;;;;;;4948452;29;20056;-67
2022/08/29 14:26:39;;;;;;;33.67;5.40;;;;;;;;;;4951122;29;20031;-68
2022/08/29 14:29:06;;;;;;;29.98;4.75;;;;;;;;;;4949894;29;20142;-70
2022/08/29 14:31:33;;;;;;;22.15;3.70;;;;;;;;;;4948033;28;20046;-68
2022/08/29 14:33:59;;;;;;;28.70;4.57;;;;;;;;;;4939523;29;20134;-68
2022/08/29 14:36:28;;;;;;;20.67;3.95;;;;;;;;;;4940876;28;20062;-68
2022/08/29 14:38:55;;;;;;;20.98;5.75;;;;;;;;;;4949111;29;20433;-68
2022/08/29 14:41:22;;;;;;;23.30;4.47;;;;;;;;;;4951575;28;20570;-68